Terminal Aerodrome Forecast
Issued by NWS Central Illinois

Home | Current Version | Previous Version | Text Only | Print | Product List | Glossary On
Versions: 1 2 3 4 5 6 7 8 9 10 11 12 13 14 15 16 17 18 19 20 21 22 23 24 25
956
FTUS43 KILX 171134
TAFPIA
TAF
KPIA 171134Z 1712/1812 28006KT P6SM FEW008
     FM171700 24010KT P6SM SCT120 SCT250
     FM172300 22008KT P6SM SCT250
     FM180400 22008KT P6SM SCT250 WS018/24040KT=

USA.gov is the U.S. government's official web portal to all federal, state and local government web resources and services.